sensor_id;sensor_type;location;lat;lon;timestamp;P1;durP1;ratioP1;P2;durP2;ratioP2
19339;SDS011;9804;52.350;6.684;2024-03-23T00:55:19;37.10;;;6.95;;
19339;SDS011;9804;52.350;6.684;2024-03-23T00:57:45;38.78;;;7.20;;
19339;SDS011;9804;52.350;6.684;2024-03-23T01:00:11;39.42;;;7.70;;
19339;SDS011;9804;52.350;6.684;2024-03-23T01:02:37;46.20;;;7.35;;
19339;SDS011;9804;52.350;6.684;2024-03-23T01:05:02;34.15;;;7.05;;
19339;SDS011;9804;52.350;6.684;2024-03-23T01:07:28;27.50;;;7.28;;
19339;SDS011;9804;52.350;6.684;2024-03-23T01:09:53;38.25;;;6.90;;
19339;SDS011;9804;52.350;6.684;2024-03-23T01:12:19;34.60;;;7.40;;
19339;SDS011;9804;52.350;6.684;2024-03-23T01:14:44;26.47;;;6.37;;
19339;SDS011;9804;52.350;6.684;2024-03-23T01:17:09;40.72;;;7.30;;
19339;SDS011;9804;52.350;6.684;2024-03-23T01:19:35;37.45;;;7.07;;
19339;SDS011;9804;52.350;6.684;2024-03-23T01:22:01;38.83;;;6.85;;
19339;SDS011;9804;52.350;6.684;2024-03-23T01:24:26;34.57;;;5.90;;
19339;SDS011;9804;52.350;6.684;2024-03-23T01:26:51;35.15;;;7.50;;
19339;SDS011;9804;52.350;6.684;2024-03-23T01:29:17;40.05;;;6.05;;
19339;SDS011;9804;52.350;6.684;2024-03-23T01:31:42;49.90;;;7.70;;
19339;SDS011;9804;52.350;6.684;2024-03-23T01:34:08;37.72;;;6.80;;
19339;SDS011;9804;52.350;6.684;2024-03-23T01:36:33;32.25;;;5.65;;
19339;SDS011;9804;52.350;6.684;2024-03-23T01:38:58;31.25;;;6.57;;
19339;SDS011;9804;52.350;6.684;2024-03-23T01:41:24;42.17;;;6.07;;
19339;SDS011;9804;52.350;6.684;2024-03-23T01:43:49;36.33;;;6.55;;
19339;SDS011;9804;52.350;6.684;2024-03-23T01:46:15;30.90;;;5.70;;
19339;SDS011;9804;52.350;6.684;2024-03-23T01:48:41;30.25;;;5.63;;
19339;SDS011;9804;52.350;6.684;2024-03-23T01:51:07;21.17;;;5.13;;
19339;SDS011;9804;52.350;6.684;2024-03-23T01:53:32;29.27;;;5.15;;
19339;SDS011;9804;52.350;6.684;2024-03-23T01:55:58;36.40;;;6.07;;
19339;SDS011;9804;52.350;6.684;2024-03-23T01:58:23;30.10;;;5.43;;
19339;SDS011;9804;52.350;6.684;2024-03-23T02:00:49;38.83;;;6.63;;
19339;SDS011;9804;52.350;6.684;2024-03-23T02:03:27;30.98;;;5.90;;
19339;SDS011;9804;52.350;6.684;2024-03-23T02:05:53;37.43;;;7.03;;
19339;SDS011;9804;52.350;6.684;2024-03-23T02:08:20;31.50;;;6.15;;
19339;SDS011;9804;52.350;6.684;2024-03-23T02:10:47;30.20;;;6.28;;
19339;SDS011;9804;52.350;6.684;2024-03-23T02:13:14;28.13;;;6.03;;
19339;SDS011;9804;52.350;6.684;2024-03-23T02:15:40;33.47;;;5.95;;
19339;SDS011;9804;52.350;6.684;2024-03-23T02:18:07;27.83;;;6.13;;
19339;SDS011;9804;52.350;6.684;2024-03-23T02:20:33;33.50;;;6.15;;
19339;SDS011;9804;52.350;6.684;2024-03-23T02:22:59;28.88;;;5.85;;
19339;SDS011;9804;52.350;6.684;2024-03-23T02:25:24;41.72;;;6.65;;
19339;SDS011;9804;52.350;6.684;2024-03-23T02:27:50;37.47;;;6.47;;
19339;SDS011;9804;52.350;6.684;2024-03-23T02:30:15;34.97;;;6.88;;
19339;SDS011;9804;52.350;6.684;2024-03-23T02:32:41;25.80;;;5.83;;
19339;SDS011;9804;52.350;6.684;2024-03-23T02:35:06;29.40;;;6.28;;
19339;SDS011;9804;52.350;6.684;2024-03-23T02:37:32;37.63;;;7.25;;
19339;SDS011;9804;52.350;6.684;2024-03-23T02:39:57;39.30;;;7.20;;
19339;SDS011;9804;52.350;6.684;2024-03-23T02:42:23;38.58;;;7.57;;
19339;SDS011;9804;52.350;6.684;2024-03-23T02:44:49;33.60;;;7.68;;
19339;SDS011;9804;52.350;6.684;2024-03-23T02:47:14;37.70;;;7.33;;
19339;SDS011;9804;52.350;6.684;2024-03-23T02:49:39;34.50;;;7.57;;
19339;SDS011;9804;52.350;6.684;2024-03-23T02:52:05;32.97;;;7.97;;
19339;SDS011;9804;52.350;6.684;2024-03-23T02:54:30;34.43;;;7.80;;
19339;SDS011;9804;52.350;6.684;2024-03-23T02:56:56;23.53;;;7.40;;
19339;SDS011;9804;52.350;6.684;2024-03-23T02:59:21;31.63;;;8.23;;
19339;SDS011;9804;52.350;6.684;2024-03-23T03:01:47;39.97;;;8.10;;
19339;SDS011;9804;52.350;6.684;2024-03-23T03:04:12;34.97;;;8.07;;
19339;SDS011;9804;52.350;6.684;2024-03-23T03:06:37;33.40;;;8.27;;
19339;SDS011;9804;52.350;6.684;2024-03-23T03:09:03;33.23;;;8.00;;
19339;SDS011;9804;52.350;6.684;2024-03-23T03:11:29;37.33;;;8.00;;
19339;SDS011;9804;52.350;6.684;2024-03-23T03:13:55;26.70;;;8.13;;
19339;SDS011;9804;52.350;6.684;2024-03-23T03:16:20;46.97;;;9.50;;
19339;SDS011;9804;52.350;6.684;2024-03-23T03:18:46;35.90;;;9.67;;
19339;SDS011;9804;52.350;6.684;2024-03-23T03:21:11;41.33;;;9.93;;
19339;SDS011;9804;52.350;6.684;2024-03-23T03:23:37;47.57;;;9.93;;
19339;SDS011;9804;52.350;6.684;2024-03-23T03:26:04;46.03;;;10.60;;
19339;SDS011;9804;52.350;6.684;2024-03-23T03:28:30;40.53;;;10.47;;
19339;SDS011;9804;52.350;6.684;2024-03-23T03:30:59;41.73;;;10.83;;
19339;SDS011;9804;52.350;6.684;2024-03-23T03:33:28;46.97;;;10.73;;
19339;SDS011;9804;52.350;6.684;2024-03-23T03:35:54;46.73;;;11.57;;
19339;SDS011;9804;52.350;6.684;2024-03-23T03:38:20;49.47;;;11.37;;
19339;SDS011;9804;52.350;6.684;2024-03-23T03:40:46;39.87;;;10.43;;
19339;SDS011;9804;52.350;6.684;2024-03-23T03:43:11;46.17;;;10.13;;
19339;SDS011;9804;52.350;6.684;2024-03-23T03:45:37;40.83;;;10.90;;
19339;SDS011;9804;52.350;6.684;2024-03-23T03:48:03;42.13;;;10.73;;
19339;SDS011;9804;52.350;6.684;2024-03-23T03:50:28;40.03;;;11.23;;
19339;SDS011;9804;52.350;6.684;2024-03-23T03:52:54;39.37;;;10.63;;
19339;SDS011;9804;52.350;6.684;2024-03-23T03:55:19;50.50;;;10.93;;
19339;SDS011;9804;52.350;6.684;2024-03-23T03:57:44;49.03;;;11.27;;
19339;SDS011;9804;52.350;6.684;2024-03-23T04:00:10;41.13;;;10.60;;
19339;SDS011;9804;52.350;6.684;2024-03-23T04:02:39;53.77;;;11.87;;
19339;SDS011;9804;52.350;6.684;2024-03-23T04:05:05;47.57;;;10.77;;
19339;SDS011;9804;52.350;6.684;2024-03-23T04:07:31;39.07;;;10.63;;
19339;SDS011;9804;52.350;6.684;2024-03-23T04:09:56;49.40;;;13.03;;
19339;SDS011;9804;52.350;6.684;2024-03-23T04:12:22;36.03;;;11.13;;
19339;SDS011;9804;52.350;6.684;2024-03-23T04:14:48;43.50;;;11.63;;
19339;SDS011;9804;52.350;6.684;2024-03-23T04:17:14;51.73;;;12.30;;
19339;SDS011;9804;52.350;6.684;2024-03-23T04:19:39;34.33;;;10.50;;
19339;SDS011;9804;52.350;6.684;2024-03-23T04:22:04;47.13;;;12.53;;
19339;SDS011;9804;52.350;6.684;2024-03-23T04:24:30;49.47;;;12.27;;
19339;SDS011;9804;52.350;6.684;2024-03-23T04:26:55;35.43;;;11.47;;
19339;SDS011;9804;52.350;6.684;2024-03-23T04:29:21;43.53;;;12.30;;
19339;SDS011;9804;52.350;6.684;2024-03-23T04:31:46;45.17;;;12.53;;
19339;SDS011;9804;52.350;6.684;2024-03-23T04:34:12;51.13;;;13.07;;
19339;SDS011;9804;52.350;6.684;2024-03-23T04:36:39;45.73;;;13.63;;
19339;SDS011;9804;52.350;6.684;2024-03-23T04:39:05;48.57;;;13.77;;
19339;SDS011;9804;52.350;6.684;2024-03-23T04:41:33;45.50;;;12.80;;
19339;SDS011;9804;52.350;6.684;2024-03-23T04:44:00;42.87;;;13.23;;
19339;SDS011;9804;52.350;6.684;2024-03-23T04:46:26;41.07;;;13.07;;
19339;SDS011;9804;52.350;6.684;2024-03-23T04:48:51;46.77;;;13.80;;
19339;SDS011;9804;52.350;6.684;2024-03-23T04:51:21;47.03;;;14.63;;
19339;SDS011;9804;52.350;6.684;2024-03-23T04:53:48;58.77;;;14.10;;
19339;SDS011;9804;52.350;6.684;2024-03-23T04:56:14;51.00;;;15.10;;
19339;SDS011;9804;52.350;6.684;2024-03-23T04:58:43;46.60;;;14.07;;
19339;SDS011;9804;52.350;6.684;2024-03-23T05:01:09;44.40;;;15.47;;
19339;SDS011;9804;52.350;6.684;2024-03-23T05:03:34;54.83;;;15.63;;
19339;SDS011;9804;52.350;6.684;2024-03-23T05:05:59;45.33;;;14.50;;
19339;SDS011;9804;52.350;6.684;2024-03-23T05:08:25;42.80;;;15.30;;
19339;SDS011;9804;52.350;6.684;2024-03-23T05:10:50;42.13;;;14.90;;
19339;SDS011;9804;52.350;6.684;2024-03-23T05:13:16;43.43;;;14.17;;
19339;SDS011;9804;52.350;6.684;2024-03-23T05:15:41;41.93;;;14.90;;
19339;SDS011;9804;52.350;6.684;2024-03-23T05:18:07;44.47;;;15.40;;
19339;SDS011;9804;52.350;6.684;2024-03-23T05:20:32;53.00;;;16.33;;
19339;SDS011;9804;52.350;6.684;2024-03-23T05:22:58;45.13;;;15.13;;
19339;SDS011;9804;52.350;6.684;2024-03-23T05:25:23;46.83;;;16.73;;
19339;SDS011;9804;52.350;6.684;2024-03-23T05:27:48;41.57;;;15.97;;
19339;SDS011;9804;52.350;6.684;2024-03-23T05:30:14;49.77;;;16.73;;
19339;SDS011;9804;52.350;6.684;2024-03-23T05:32:40;48.80;;;16.67;;
19339;SDS011;9804;52.350;6.684;2024-03-23T05:35:07;40.73;;;16.50;;
19339;SDS011;9804;52.350;6.684;2024-03-23T05:37:33;52.27;;;18.40;;
19339;SDS011;9804;52.350;6.684;2024-03-23T05:40:02;50.37;;;17.50;;
19339;SDS011;9804;52.350;6.684;2024-03-23T05:42:28;55.90;;;19.40;;
19339;SDS011;9804;52.350;6.684;2024-03-23T05:44:54;54.07;;;20.23;;
19339;SDS011;9804;52.350;6.684;2024-03-23T05:47:19;59.27;;;19.70;;
19339;SDS011;9804;52.350;6.684;2024-03-23T05:49:45;55.87;;;20.47;;
19339;SDS011;9804;52.350;6.684;2024-03-23T05:52:11;53.10;;;20.57;;
19339;SDS011;9804;52.350;6.684;2024-03-23T05:54:37;55.00;;;19.67;;
19339;SDS011;9804;52.350;6.684;2024-03-23T05:57:03;53.83;;;19.80;;
19339;SDS011;9804;52.350;6.684;2024-03-23T05:59:28;53.50;;;19.83;;
19339;SDS011;9804;52.350;6.684;2024-03-23T06:01:54;54.87;;;21.87;;
19339;SDS011;9804;52.350;6.684;2024-03-23T06:04:20;52.80;;;20.67;;
19339;SDS011;9804;52.350;6.684;2024-03-23T06:06:46;59.93;;;20.37;;
19339;SDS011;9804;52.350;6.684;2024-03-23T06:09:12;61.00;;;20.57;;
19339;SDS011;9804;52.350;6.684;2024-03-23T06:11:37;51.83;;;21.30;;
19339;SDS011;9804;52.350;6.684;2024-03-23T06:14:03;54.63;;;21.20;;
19339;SDS011;9804;52.350;6.684;2024-03-23T06:16:29;58.63;;;21.20;;
19339;SDS011;9804;52.350;6.684;2024-03-23T06:18:55;53.00;;;20.73;;
19339;SDS011;9804;52.350;6.684;2024-03-23T06:21:21;45.43;;;19.77;;
19339;SDS011;9804;52.350;6.684;2024-03-23T06:23:50;62.83;;;20.23;;
19339;SDS011;9804;52.350;6.684;2024-03-23T06:26:20;50.63;;;19.57;;
19339;SDS011;9804;52.350;6.684;2024-03-23T06:28:46;40.97;;;18.03;;
19339;SDS011;9804;52.350;6.684;2024-03-23T06:31:12;49.63;;;18.73;;
19339;SDS011;9804;52.350;6.684;2024-03-23T06:33:38;50.63;;;19.73;;
19339;SDS011;9804;52.350;6.684;2024-03-23T06:36:04;49.50;;;18.73;;
19339;SDS011;9804;52.350;6.684;2024-03-23T06:38:30;50.63;;;16.80;;
19339;SDS011;9804;52.350;6.684;2024-03-23T06:40:56;41.70;;;17.23;;
19339;SDS011;9804;52.350;6.684;2024-03-23T06:43:21;35.07;;;16.00;;
19339;SDS011;9804;52.350;6.684;2024-03-23T06:45:53;32.83;;;14.57;;
19339;SDS011;9804;52.350;6.684;2024-03-23T06:48:19;36.95;;;14.15;;
19339;SDS011;9804;52.350;6.684;2024-03-23T06:50:45;37.27;;;13.20;;
19339;SDS011;9804;52.350;6.684;2024-03-23T06:53:11;32.38;;;12.20;;
19339;SDS011;9804;52.350;6.684;2024-03-23T06:55:37;30.57;;;11.40;;
19339;SDS011;9804;52.350;6.684;2024-03-23T06:58:02;30.48;;;10.60;;
19339;SDS011;9804;52.350;6.684;2024-03-23T07:00:29;33.05;;;10.43;;
19339;SDS011;9804;52.350;6.684;2024-03-23T07:02:54;28.63;;;11.00;;
19339;SDS011;9804;52.350;6.684;2024-03-23T07:05:20;28.47;;;10.50;;
19339;SDS011;9804;52.350;6.684;2024-03-23T07:07:45;22.77;;;8.10;;
19339;SDS011;9804;52.350;6.684;2024-03-23T07:10:10;26.50;;;7.30;;
19339;SDS011;9804;52.350;6.684;2024-03-23T07:12:36;17.20;;;4.93;;
19339;SDS011;9804;52.350;6.684;2024-03-23T07:15:02;17.20;;;5.17;;
19339;SDS011;9804;52.350;6.684;2024-03-23T07:17:27;14.40;;;3.80;;
19339;SDS011;9804;52.350;6.684;2024-03-23T07:19:53;9.43;;;2.70;;
19339;SDS011;9804;52.350;6.684;2024-03-23T07:22:18;8.15;;;1.73;;
19339;SDS011;9804;52.350;6.684;2024-03-23T07:24:44;4.20;;;1.03;;
19339;SDS011;9804;52.350;6.684;2024-03-23T07:27:09;6.77;;;1.43;;
19339;SDS011;9804;52.350;6.684;2024-03-23T07:29:38;6.30;;;1.10;;
19339;SDS011;9804;52.350;6.684;2024-03-23T07:32:03;4.07;;;1.00;;
19339;SDS011;9804;52.350;6.684;2024-03-23T07:34:29;6.23;;;1.37;;
19339;SDS011;9804;52.350;6.684;2024-03-23T07:36:54;4.20;;;1.00;;
19339;SDS011;9804;52.350;6.684;2024-03-23T07:39:20;6.07;;;1.20;;
19339;SDS011;9804;52.350;6.684;2024-03-23T07:41:45;6.23;;;1.27;;
19339;SDS011;9804;52.350;6.684;2024-03-23T07:44:11;4.30;;;0.90;;
19339;SDS011;9804;52.350;6.684;2024-03-23T07:46:36;3.43;;;0.93;;
19339;SDS011;9804;52.350;6.684;2024-03-23T07:49:04;8.70;;;1.37;;
19339;SDS011;9804;52.350;6.684;2024-03-23T07:51:29;3.83;;;0.60;;
19339;SDS011;9804;52.350;6.684;2024-03-23T07:53:55;6.93;;;1.27;;
19339;SDS011;9804;52.350;6.684;2024-03-23T07:56:20;6.03;;;1.10;;
19339;SDS011;9804;52.350;6.684;2024-03-23T07:58:46;4.70;;;0.82;;
19339;SDS011;9804;52.350;6.684;2024-03-23T08:01:16;4.60;;;0.90;;
19339;SDS011;9804;52.350;6.684;2024-03-23T08:03:45;5.03;;;1.15;;
19339;SDS011;9804;52.350;6.684;2024-03-23T08:08:37;9.50;;;1.80;;
19339;SDS011;9804;52.350;6.684;2024-03-23T08:11:03;5.07;;;1.70;;
19339;SDS011;9804;52.350;6.684;2024-03-23T08:13:31;6.47;;;1.38;;
19339;SDS011;9804;52.350;6.684;2024-03-23T08:16:00;6.70;;;1.60;;
19339;SDS011;9804;52.350;6.684;2024-03-23T08:18:27;7.30;;;1.83;;
19339;SDS011;9804;52.350;6.684;2024-03-23T08:20:56;7.57;;;1.73;;
19339;SDS011;9804;52.350;6.684;2024-03-23T08:23:22;6.72;;;2.08;;
19339;SDS011;9804;52.350;6.684;2024-03-23T08:25:52;8.80;;;2.20;;
19339;SDS011;9804;52.350;6.684;2024-03-23T08:28:22;9.40;;;3.00;;
19339;SDS011;9804;52.350;6.684;2024-03-23T08:30:48;15.88;;;3.15;;
19339;SDS011;9804;52.350;6.684;2024-03-23T08:33:14;11.05;;;3.25;;
19339;SDS011;9804;52.350;6.684;2024-03-23T08:35:40;10.32;;;3.17;;
19339;SDS011;9804;52.350;6.684;2024-03-23T08:38:06;21.77;;;3.80;;
19339;SDS011;9804;52.350;6.684;2024-03-23T08:40:31;17.38;;;3.80;;
19339;SDS011;9804;52.350;6.684;2024-03-23T08:42:57;14.02;;;3.92;;
19339;SDS011;9804;52.350;6.684;2024-03-23T08:45:24;13.25;;;3.40;;
19339;SDS011;9804;52.350;6.684;2024-03-23T08:47:50;15.32;;;4.15;;
19339;SDS011;9804;52.350;6.684;2024-03-23T08:50:15;16.35;;;3.90;;
19339;SDS011;9804;52.350;6.684;2024-03-23T08:52:41;15.43;;;4.53;;
19339;SDS011;9804;52.350;6.684;2024-03-23T08:55:06;16.67;;;3.95;;
19339;SDS011;9804;52.350;6.684;2024-03-23T08:57:32;9.32;;;3.38;;
19339;SDS011;9804;52.350;6.684;2024-03-23T08:59:57;13.35;;;3.00;;
19339;SDS011;9804;52.350;6.684;2024-03-23T09:02:23;13.80;;;3.00;;
19339;SDS011;9804;52.350;6.684;2024-03-23T09:04:48;12.40;;;2.97;;
19339;SDS011;9804;52.350;6.684;2024-03-23T09:07:14;11.40;;;3.15;;
19339;SDS011;9804;52.350;6.684;2024-03-23T09:09:39;12.02;;;3.28;;
19339;SDS011;9804;52.350;6.684;2024-03-23T09:12:05;16.48;;;3.22;;
19339;SDS011;9804;52.350;6.684;2024-03-23T09:14:31;14.20;;;3.72;;
19339;SDS011;9804;52.350;6.684;2024-03-23T09:16:57;9.90;;;2.80;;
19339;SDS011;9804;52.350;6.684;2024-03-23T09:19:23;12.02;;;2.83;;
19339;SDS011;9804;52.350;6.684;2024-03-23T09:21:49;14.35;;;2.90;;
19339;SDS011;9804;52.350;6.684;2024-03-23T09:24:14;12.10;;;3.00;;
19339;SDS011;9804;52.350;6.684;2024-03-23T09:26:40;11.32;;;2.80;;
19339;SDS011;9804;52.350;6.684;2024-03-23T09:29:05;11.95;;;2.72;;
19339;SDS011;9804;52.350;6.684;2024-03-23T09:31:30;6.75;;;2.03;;
19339;SDS011;9804;52.350;6.684;2024-03-23T09:33:57;5.65;;;2.03;;
19339;SDS011;9804;52.350;6.684;2024-03-23T09:36:23;10.20;;;2.47;;
19339;SDS011;9804;52.350;6.684;2024-03-23T09:38:48;12.75;;;2.45;;
19339;SDS011;9804;52.350;6.684;2024-03-23T09:41:14;9.18;;;2.53;;
19339;SDS011;9804;52.350;6.684;2024-03-23T09:43:40;7.90;;;1.67;;
19339;SDS011;9804;52.350;6.684;2024-03-23T09:46:05;7.82;;;2.38;;
19339;SDS011;9804;52.350;6.684;2024-03-23T09:48:31;6.82;;;1.95;;
19339;SDS011;9804;52.350;6.684;2024-03-23T09:50:57;7.03;;;1.90;;
19339;SDS011;9804;52.350;6.684;2024-03-23T09:53:24;7.60;;;1.90;;
19339;SDS011;9804;52.350;6.684;2024-03-23T09:55:49;9.43;;;2.33;;
19339;SDS011;9804;52.350;6.684;2024-03-23T09:58:18;11.73;;;2.78;;
19339;SDS011;9804;52.350;6.684;2024-03-23T10:00:43;8.50;;;2.15;;
19339;SDS011;9804;52.350;6.684;2024-03-23T10:03:09;9.75;;;2.35;;
19339;SDS011;9804;52.350;6.684;2024-03-23T10:05:36;8.48;;;2.25;;
19339;SDS011;9804;52.350;6.684;2024-03-23T10:08:35;12.35;;;2.60;;
19339;SDS011;9804;52.350;6.684;2024-03-23T10:10:54;12.27;;;3.45;;
19339;SDS011;9804;52.350;6.684;2024-03-23T10:13:26;9.93;;;2.45;;
19339;SDS011;9804;52.350;6.684;2024-03-23T10:15:56;7.97;;;2.78;;
19339;SDS011;9804;52.350;6.684;2024-03-23T10:18:22;11.85;;;2.50;;
19339;SDS011;9804;52.350;6.684;2024-03-23T10:20:53;14.77;;;3.00;;
19339;SDS011;9804;52.350;6.684;2024-03-23T10:23:31;16.17;;;2.83;;
19339;SDS011;9804;52.350;6.684;2024-03-23T10:28:59;9.60;;;2.10;;
19339;SDS011;9804;52.350;6.684;2024-03-23T10:31:26;7.65;;;1.92;;
19339;SDS011;9804;52.350;6.684;2024-03-23T10:33:56;7.65;;;1.73;;
19339;SDS011;9804;52.350;6.684;2024-03-23T10:36:22;9.77;;;1.80;;
19339;SDS011;9804;52.350;6.684;2024-03-23T10:38:49;11.13;;;1.98;;
19339;SDS011;9804;52.350;6.684;2024-03-23T10:41:15;8.23;;;1.70;;
19339;SDS011;9804;52.350;6.684;2024-03-23T10:43:41;5.47;;;1.50;;
19339;SDS011;9804;52.350;6.684;2024-03-23T10:46:08;3.30;;;0.60;;
19339;SDS011;9804;52.350;6.684;2024-03-23T10:48:34;1.02;;;0.50;;
19339;SDS011;9804;52.350;6.684;2024-03-23T10:50:59;3.58;;;1.27;;
19339;SDS011;9804;52.350;6.684;2024-03-23T10:53:26;2.40;;;0.70;;
19339;SDS011;9804;52.350;6.684;2024-03-23T10:55:52;2.53;;;0.50;;
19339;SDS011;9804;52.350;6.684;2024-03-23T10:58:21;3.42;;;0.77;;
19339;SDS011;9804;52.350;6.684;2024-03-23T11:00:51;6.45;;;0.77;;
19339;SDS011;9804;52.350;6.684;2024-03-23T11:05:57;5.47;;;0.93;;
19339;SDS011;9804;52.350;6.684;2024-03-23T11:08:30;6.13;;;0.90;;
19339;SDS011;9804;52.350;6.684;2024-03-23T11:13:38;5.32;;;0.85;;
19339;SDS011;9804;52.350;6.684;2024-03-23T11:16:13;6.07;;;0.93;;
19339;SDS011;9804;52.350;6.684;2024-03-23T11:18:39;5.53;;;0.90;;
19339;SDS011;9804;52.350;6.684;2024-03-23T11:21:06;9.13;;;1.48;;
19339;SDS011;9804;52.350;6.684;2024-03-23T11:23:32;6.93;;;1.60;;
19339;SDS011;9804;52.350;6.684;2024-03-23T11:25:57;5.72;;;1.20;;
19339;SDS011;9804;52.350;6.684;2024-03-23T11:28:23;4.30;;;0.98;;
19339;SDS011;9804;52.350;6.684;2024-03-23T11:30:48;9.95;;;1.23;;
19339;SDS011;9804;52.350;6.684;2024-03-23T11:33:13;6.40;;;1.20;;
19339;SDS011;9804;52.350;6.684;2024-03-23T11:35:40;8.55;;;1.38;;
19339;SDS011;9804;52.350;6.684;2024-03-23T11:40:43;6.03;;;1.20;;
19339;SDS011;9804;52.350;6.684;2024-03-23T11:43:11;6.22;;;1.42;;
19339;SDS011;9804;52.350;6.684;2024-03-23T11:45:39;5.38;;;1.00;;
19339;SDS011;9804;52.350;6.684;2024-03-23T11:48:17;4.43;;;0.80;;
19339;SDS011;9804;52.350;6.684;2024-03-23T11:50:45;7.30;;;0.90;;
19339;SDS011;9804;52.350;6.684;2024-03-23T11:53:16;2.50;;;0.87;;
19339;SDS011;9804;52.350;6.684;2024-03-23T11:55:43;3.90;;;1.05;;
19339;SDS011;9804;52.350;6.684;2024-03-23T11:58:11;5.50;;;1.07;;
19339;SDS011;9804;52.350;6.684;2024-03-23T12:00:38;1.87;;;1.00;;
19339;SDS011;9804;52.350;6.684;2024-03-23T12:03:04;5.85;;;1.63;;
19339;SDS011;9804;52.350;6.684;2024-03-23T12:05:30;5.22;;;1.67;;
19339;SDS011;9804;52.350;6.684;2024-03-23T12:10:43;6.75;;;1.30;;
19339;SDS011;9804;52.350;6.684;2024-03-23T12:13:10;5.65;;;1.40;;
19339;SDS011;9804;52.350;6.684;2024-03-23T12:15:35;7.57;;;2.03;;
19339;SDS011;9804;52.350;6.684;2024-03-23T12:18:10;8.20;;;1.80;;
19339;SDS011;9804;52.350;6.684;2024-03-23T12:20:36;10.68;;;1.98;;
19339;SDS011;9804;52.350;6.684;2024-03-23T12:23:09;10.05;;;1.80;;
19339;SDS011;9804;52.350;6.684;2024-03-23T12:25:36;4.30;;;1.30;;
19339;SDS011;9804;52.350;6.684;2024-03-23T12:28:02;3.90;;;0.90;;
19339;SDS011;9804;52.350;6.684;2024-03-23T12:30:29;4.85;;;0.70;;
19339;SDS011;9804;52.350;6.684;2024-03-23T12:32:55;0.77;;;0.32;;
19339;SDS011;9804;52.350;6.684;2024-03-23T12:35:20;3.85;;;0.60;;
19339;SDS011;9804;52.350;6.684;2024-03-23T12:37:46;3.23;;;0.70;;
19339;SDS011;9804;52.350;6.684;2024-03-23T12:40:11;1.63;;;0.37;;
19339;SDS011;9804;52.350;6.684;2024-03-23T12:42:37;1.20;;;0.50;;
19339;SDS011;9804;52.350;6.684;2024-03-23T12:45:02;6.93;;;1.07;;
19339;SDS011;9804;52.350;6.684;2024-03-23T12:47:30;6.25;;;0.90;;
19339;SDS011;9804;52.350;6.684;2024-03-23T12:49:55;3.03;;;0.70;;
19339;SDS011;9804;52.350;6.684;2024-03-23T12:52:20;5.28;;;1.05;;
19339;SDS011;9804;52.350;6.684;2024-03-23T12:54:48;8.60;;;1.30;;
19339;SDS011;9804;52.350;6.684;2024-03-23T12:57:13;5.53;;;0.90;;
19339;SDS011;9804;52.350;6.684;2024-03-23T12:59:39;4.25;;;1.13;;
19339;SDS011;9804;52.350;6.684;2024-03-23T13:02:04;10.60;;;2.25;;
19339;SDS011;9804;52.350;6.684;2024-03-23T13:04:29;4.95;;;1.25;;
19339;SDS011;9804;52.350;6.684;2024-03-23T13:06:55;7.70;;;1.70;;
19339;SDS011;9804;52.350;6.684;2024-03-23T13:09:21;6.63;;;1.98;;
19339;SDS011;9804;52.350;6.684;2024-03-23T13:11:46;9.15;;;1.75;;
19339;SDS011;9804;52.350;6.684;2024-03-23T13:14:11;9.15;;;1.60;;
19339;SDS011;9804;52.350;6.684;2024-03-23T13:16:39;8.52;;;1.90;;
19339;SDS011;9804;52.350;6.684;2024-03-23T13:19:05;10.15;;;1.60;;
19339;SDS011;9804;52.350;6.684;2024-03-23T13:21:30;7.25;;;1.67;;
19339;SDS011;9804;52.350;6.684;2024-03-23T13:23:55;13.35;;;2.13;;
19339;SDS011;9804;52.350;6.684;2024-03-23T13:26:21;12.55;;;2.00;;
19339;SDS011;9804;52.350;6.684;2024-03-23T13:28:46;7.82;;;1.67;;
19339;SDS011;9804;52.350;6.684;2024-03-23T13:31:11;10.27;;;1.77;;
19339;SDS011;9804;52.350;6.684;2024-03-23T13:33:37;9.30;;;1.77;;
19339;SDS011;9804;52.350;6.684;2024-03-23T13:36:02;6.90;;;1.58;;
19339;SDS011;9804;52.350;6.684;2024-03-23T13:38:28;8.75;;;1.92;;
19339;SDS011;9804;52.350;6.684;2024-03-23T13:40:54;13.70;;;1.40;;
19339;SDS011;9804;52.350;6.684;2024-03-23T13:43:24;8.32;;;1.58;;
19339;SDS011;9804;52.350;6.684;2024-03-23T13:45:54;5.28;;;1.30;;
19339;SDS011;9804;52.350;6.684;2024-03-23T13:48:22;11.07;;;1.40;;
19339;SDS011;9804;52.350;6.684;2024-03-23T13:51:04;6.15;;;1.00;;
19339;SDS011;9804;52.350;6.684;2024-03-23T13:53:30;10.07;;;1.23;;
19339;SDS011;9804;52.350;6.684;2024-03-23T13:55:57;8.05;;;1.33;;
19339;SDS011;9804;52.350;6.684;2024-03-23T13:58:23;6.75;;;1.55;;
19339;SDS011;9804;52.350;6.684;2024-03-23T14:00:51;11.85;;;1.55;;
19339;SDS011;9804;52.350;6.684;2024-03-23T14:03:17;8.95;;;1.95;;
19339;SDS011;9804;52.350;6.684;2024-03-23T14:05:43;8.35;;;1.98;;
19339;SDS011;9804;52.350;6.684;2024-03-23T14:08:09;6.03;;;1.50;;
19339;SDS011;9804;52.350;6.684;2024-03-23T14:10:36;5.45;;;1.02;;
19339;SDS011;9804;52.350;6.684;2024-03-23T14:13:05;7.47;;;1.50;;
19339;SDS011;9804;52.350;6.684;2024-03-23T14:15:30;6.95;;;1.73;;
19339;SDS011;9804;52.350;6.684;2024-03-23T14:17:56;6.38;;;1.20;;
19339;SDS011;9804;52.350;6.684;2024-03-23T14:20:21;6.60;;;1.05;;
19339;SDS011;9804;52.350;6.684;2024-03-23T14:22:50;5.13;;;0.60;;
19339;SDS011;9804;52.350;6.684;2024-03-23T14:25:16;2.22;;;0.88;;
19339;SDS011;9804;52.350;6.684;2024-03-23T14:27:43;5.18;;;0.80;;
19339;SDS011;9804;52.350;6.684;2024-03-23T14:30:10;4.93;;;0.90;;
19339;SDS011;9804;52.350;6.684;2024-03-23T14:32:37;7.18;;;1.05;;
19339;SDS011;9804;52.350;6.684;2024-03-23T14:35:03;5.97;;;1.08;;
19339;SDS011;9804;52.350;6.684;2024-03-23T14:37:29;6.18;;;1.00;;
19339;SDS011;9804;52.350;6.684;2024-03-23T14:39:57;11.95;;;0.90;;
19339;SDS011;9804;52.350;6.684;2024-03-23T14:42:23;3.67;;;0.88;;
19339;SDS011;9804;52.350;6.684;2024-03-23T14:44:49;7.30;;;1.10;;
19339;SDS011;9804;52.350;6.684;2024-03-23T14:47:14;7.55;;;0.98;;
19339;SDS011;9804;52.350;6.684;2024-03-23T14:49:40;8.43;;;1.30;;
19339;SDS011;9804;52.350;6.684;2024-03-23T14:52:06;5.10;;;0.98;;
19339;SDS011;9804;52.350;6.684;2024-03-23T14:54:33;6.18;;;1.35;;
19339;SDS011;9804;52.350;6.684;2024-03-23T14:57:00;7.03;;;1.25;;
19339;SDS011;9804;52.350;6.684;2024-03-23T14:59:25;9.32;;;1.58;;
19339;SDS011;9804;52.350;6.684;2024-03-23T15:01:51;12.90;;;1.63;;
19339;SDS011;9804;52.350;6.684;2024-03-23T15:04:16;5.70;;;1.45;;
19339;SDS011;9804;52.350;6.684;2024-03-23T15:06:41;7.60;;;1.58;;
19339;SDS011;9804;52.350;6.684;2024-03-23T15:09:07;5.30;;;1.30;;
19339;SDS011;9804;52.350;6.684;2024-03-23T15:11:36;6.78;;;1.55;;
19339;SDS011;9804;52.350;6.684;2024-03-23T15:14:01;10.48;;;1.75;;
19339;SDS011;9804;52.350;6.684;2024-03-23T15:16:27;8.57;;;1.33;;
19339;SDS011;9804;52.350;6.684;2024-03-23T15:18:52;7.82;;;1.45;;
19339;SDS011;9804;52.350;6.684;2024-03-23T15:21:17;10.25;;;1.58;;
19339;SDS011;9804;52.350;6.684;2024-03-23T15:23:46;10.02;;;1.15;;
19339;SDS011;9804;52.350;6.684;2024-03-23T15:26:12;7.05;;;1.10;;
19339;SDS011;9804;52.350;6.684;2024-03-23T15:28:38;5.78;;;1.00;;
19339;SDS011;9804;52.350;6.684;2024-03-23T15:31:05;7.10;;;1.17;;
19339;SDS011;9804;52.350;6.684;2024-03-23T15:33:32;3.30;;;0.90;;
19339;SDS011;9804;52.350;6.684;2024-03-23T15:36:00;9.75;;;1.10;;
19339;SDS011;9804;52.350;6.684;2024-03-23T15:38:31;4.65;;;0.80;;
19339;SDS011;9804;52.350;6.684;2024-03-23T15:40:57;4.93;;;1.00;;
19339;SDS011;9804;52.350;6.684;2024-03-23T15:43:22;5.20;;;1.10;;
19339;SDS011;9804;52.350;6.684;2024-03-23T15:45:58;4.05;;;0.98;;
19339;SDS011;9804;52.350;6.684;2024-03-23T15:48:25;4.10;;;0.90;;
19339;SDS011;9804;52.350;6.684;2024-03-23T15:50:54;5.70;;;1.30;;
19339;SDS011;9804;52.350;6.684;2024-03-23T15:53:20;7.88;;;1.42;;
19339;SDS011;9804;52.350;6.684;2024-03-23T15:55:53;3.92;;;0.68;;